Time;durP1;ratioP1;P1;durP2;ratioP2;P2;SDS_P1;SDS_P2;PMS_P1;PMS_P2;Temp;Humidity;BMP_temperature;BMP_pressure;BME280_temperature;BME280_humidity;BME280_pressure;Samples;Min_cycle;Max_cycle;Signal;HPM_P1;HPM_P2
2022/10/24 00:01:35;;;;;;;7.00;5.47;;;14.70;99.90;;;;;;5129260;27;20606;-67
2022/10/24 00:04:02;;;;;;;6.93;5.00;;;14.60;99.90;;;;;;5129365;27;20248;-67
2022/10/24 00:06:28;;;;;;;4.77;4.37;;;14.70;99.90;;;;;;5129537;27;20197;-67
2022/10/24 00:08:55;;;;;;;5.27;4.77;;;14.70;99.90;;;;;;5129068;27;20209;-67
2022/10/24 00:11:25;;;;;;;6.13;4.53;;;14.80;99.90;;;;;;5128918;27;20585;-67
2022/10/24 00:13:54;;;;;;;4.83;4.40;;;14.80;99.90;;;;;;5129199;27;20185;-67
2022/10/24 00:16:21;;;;;;;4.60;4.10;;;14.80;99.90;;;;;;5129201;27;20205;-67
2022/10/24 00:18:49;;;;;;;7.03;4.93;;;14.90;99.90;;;;;;5128757;27;20193;-67
2022/10/24 00:21:16;;;;;;;6.30;4.10;;;14.90;99.90;;;;;;5125312;27;20206;-67
2022/10/24 00:23:43;;;;;;;5.37;3.97;;;14.90;99.90;;;;;;5108502;28;20240;-67
2022/10/24 00:26:11;;;;;;;4.90;4.50;;;14.90;99.90;;;;;;5108497;28;20212;-68
2022/10/24 00:28:39;;;;;;;6.20;4.60;;;14.90;99.90;;;;;;5107995;28;20657;-67
2022/10/24 00:31:07;;;;;;;4.80;4.20;;;15.00;99.90;;;;;;5125603;27;21011;-67
2022/10/24 00:33:34;;;;;;;5.57;4.37;;;15.00;99.90;;;;;;5113013;27;20198;-67
2022/10/24 00:36:02;;;;;;;5.47;4.20;;;15.00;99.90;;;;;;5108104;28;20213;-67
2022/10/24 00:38:29;;;;;;;4.50;4.17;;;15.00;99.90;;;;;;5108587;28;20202;-67
2022/10/24 00:40:56;;;;;;;4.90;4.07;;;15.00;99.90;;;;;;5108497;28;20206;-67
2022/10/24 00:43:25;;;;;;;6.70;4.20;;;15.00;99.90;;;;;;5108308;28;20238;-67
2022/10/24 00:45:54;;;;;;;4.87;4.23;;;15.00;99.90;;;;;;5107801;28;20202;-67
2022/10/24 00:48:25;;;;;;;5.60;3.93;;;15.00;99.90;;;;;;5122445;27;20197;-67
2022/10/24 00:50:55;;;;;;;5.10;4.60;;;15.00;99.90;;;;;;5128916;27;20209;-67
2022/10/24 00:53:24;;;;;;;4.73;4.33;;;15.00;99.90;;;;;;5129150;27;20193;-67
2022/10/24 00:55:54;;;;;;;6.77;4.70;;;15.00;99.90;;;;;;5128495;27;20209;-67
2022/10/24 00:58:23;;;;;;;4.83;4.20;;;15.00;99.90;;;;;;5128679;27;20224;-67
2022/10/24 01:00:50;;;;;;;4.43;3.93;;;15.00;99.90;;;;;;5128793;27;20594;-67
2022/10/24 01:03:17;;;;;;;4.97;4.00;;;15.00;99.90;;;;;;5128483;27;20713;-67
2022/10/24 01:05:56;;;;;;;5.57;4.23;;;15.00;99.90;;;;;;5127796;27;20557;-67
2022/10/24 01:08:31;;;;;;;4.87;4.00;;;15.00;99.90;;;;;;5128594;27;20194;-67
2022/10/24 01:11:10;;;;;;;4.63;4.20;;;15.00;99.90;;;;;;5128642;27;20220;-67
2022/10/24 01:13:46;;;;;;;4.37;4.00;;;15.00;99.90;;;;;;5128375;27;20201;-67
2022/10/24 01:16:18;;;;;;;4.20;3.80;;;15.00;99.90;;;;;;5128790;27;20189;-67
2022/10/24 01:18:50;;;;;;;4.93;4.40;;;15.00;99.90;;;;;;5127837;27;20672;-67
2022/10/24 01:21:29;;;;;;;4.43;4.03;;;15.00;99.90;;;;;;5128490;27;20194;-67
2022/10/24 01:24:36;;;;;;;4.53;4.13;;;15.00;99.90;;;;;;5128262;27;20221;-67
2022/10/24 01:27:30;;;;;;;4.53;4.13;;;15.00;99.90;;;;;;5128331;27;20205;-67
2022/10/24 01:30:04;;;;;;;5.17;4.17;;;15.00;99.90;;;;;;5128305;27;20216;-68
2022/10/24 01:32:38;;;;;;;4.43;3.90;;;15.00;99.90;;;;;;5121563;27;20192;-67
2022/10/24 01:35:16;;;;;;;5.27;4.40;;;15.00;99.90;;;;;;5107525;28;20664;-67
2022/10/24 01:37:47;;;;;;;4.23;3.80;;;15.00;99.90;;;;;;5110969;28;20193;-67
2022/10/24 01:40:19;;;;;;;5.20;4.00;;;14.90;99.90;;;;;;5127722;27;20194;-68
2022/10/24 01:42:48;;;;;;;4.50;4.13;;;15.00;99.90;;;;;;5128206;27;20197;-68
2022/10/24 01:45:21;;;;;;;4.17;3.87;;;14.90;99.90;;;;;;5127995;27;20202;-67
2022/10/24 01:47:52;;;;;;;4.73;4.00;;;14.90;99.90;;;;;;5128160;27;20190;-67
2022/10/24 01:50:21;;;;;;;4.57;3.67;;;15.00;99.90;;;;;;5128192;27;20194;-67
2022/10/24 01:52:49;;;;;;;4.07;3.67;;;14.90;99.90;;;;;;5127761;27;20244;-67
2022/10/24 01:55:16;;;;;;;4.57;3.53;;;14.90;99.90;;;;;;5127434;27;20683;-67
2022/10/24 01:57:42;;;;;;;5.43;4.10;;;14.90;99.90;;;;;;5107352;28;20572;-68
2022/10/24 02:00:18;;;;;;;5.17;3.70;;;14.90;99.90;;;;;;5111400;28;20210;-67
2022/10/24 02:02:48;;;;;;;4.27;3.53;;;14.90;99.90;;;;;;5111058;28;20237;-67
2022/10/24 02:05:18;;;;;;;4.27;3.83;;;14.90;99.90;;;;;;5111117;28;20230;-67
2022/10/24 02:07:49;;;;;;;5.93;4.07;;;14.90;99.90;;;;;;5110972;28;20206;-68
2022/10/24 02:10:20;;;;;;;4.37;3.97;;;14.90;99.90;;;;;;5111060;28;20229;-67
2022/10/24 02:12:50;;;;;;;3.93;3.63;;;14.90;99.90;;;;;;5120831;27;20209;-67
2022/10/24 02:15:23;;;;;;;5.07;3.70;;;14.90;99.90;;;;;;5130949;27;20213;-68
2022/10/24 02:17:51;;;;;;;7.17;3.73;;;14.90;99.90;;;;;;5131550;27;20194;-67
2022/10/24 02:20:18;;;;;;;5.00;4.27;;;14.90;99.90;;;;;;5123337;27;20206;-68
2022/10/24 02:22:51;;;;;;;4.90;3.70;;;14.90;99.90;;;;;;5110671;28;20206;-68
2022/10/24 02:25:22;;;;;;;6.37;3.60;;;14.90;99.90;;;;;;5116931;27;20229;-68
2022/10/24 02:27:55;;;;;;;4.60;3.73;;;14.90;99.90;;;;;;5131077;27;20193;-68
2022/10/24 02:30:25;;;;;;;4.07;3.60;;;14.90;99.90;;;;;;5131502;27;20190;-68
2022/10/24 02:32:55;;;;;;;4.97;3.37;;;14.90;99.90;;;;;;5121652;27;20186;-68
2022/10/24 02:35:26;;;;;;;5.13;3.43;;;14.90;99.90;;;;;;5111234;28;20198;-68
2022/10/24 02:37:59;;;;;;;3.73;3.43;;;14.90;99.90;;;;;;5110548;28;20191;-68
2022/10/24 02:40:26;;;;;;;3.70;3.07;;;14.90;99.90;;;;;;5110552;28;20202;-68
2022/10/24 02:42:57;;;;;;;3.83;3.50;;;14.90;99.90;;;;;;5113128;27;20210;-68
2022/10/24 02:45:26;;;;;;;3.80;3.50;;;14.90;99.90;;;;;;5131032;27;20217;-68
2022/10/24 02:47:57;;;;;;;3.10;2.70;;;14.80;99.90;;;;;;5130688;27;20205;-68
2022/10/24 02:50:24;;;;;;;3.73;3.43;;;14.80;99.90;;;;;;5131079;27;20202;-69
2022/10/24 02:52:51;;;;;;;5.23;3.53;;;14.80;99.90;;;;;;5131004;27;20210;-68
2022/10/24 02:55:18;;;;;;;4.23;3.27;;;14.80;99.90;;;;;;5130365;27;20202;-68
2022/10/24 02:57:45;;;;;;;3.83;3.37;;;14.80;99.90;;;;;;5128143;27;20197;-68
2022/10/24 03:00:12;;;;;;;3.23;3.00;;;14.80;99.90;;;;;;5130969;27;20197;-68
2022/10/24 03:02:41;;;;;;;4.13;3.00;;;14.80;99.90;;;;;;5130386;27;20241;-68
2022/10/24 03:05:08;;;;;;;4.20;3.10;;;14.80;99.90;;;;;;5130678;27;20237;-68
2022/10/24 03:07:35;;;;;;;4.30;2.93;;;14.80;99.90;;;;;;5130704;27;20210;-68
2022/10/24 03:10:02;;;;;;;3.37;3.03;;;14.80;99.90;;;;;;5127507;27;20225;-68
2022/10/24 03:12:28;;;;;;;3.10;2.80;;;14.80;99.90;;;;;;5130297;27;20686;-68
2022/10/24 03:14:55;;;;;;;5.33;3.07;;;14.80;99.90;;;;;;5130731;27;20217;-68
2022/10/24 03:17:22;;;;;;;3.27;2.97;;;14.80;99.90;;;;;;5130865;27;20630;-68
2022/10/24 03:19:50;;;;;;;3.30;2.90;;;14.80;99.90;;;;;;5126002;27;20206;-68
2022/10/24 03:22:17;;;;;;;3.90;2.83;;;14.70;99.90;;;;;;5117470;27;20209;-68
2022/10/24 03:24:43;;;;;;;5.07;3.23;;;14.80;99.90;;;;;;5129910;27;20237;-67
2022/10/24 03:27:10;;;;;;;3.60;3.13;;;14.70;99.90;;;;;;5113974;27;20225;-68
2022/10/24 03:29:37;;;;;;;3.30;3.00;;;14.70;99.90;;;;;;5122877;27;20206;-68
2022/10/24 03:32:04;;;;;;;6.27;2.87;;;14.60;99.90;;;;;;5127240;27;20208;-67
2022/10/24 03:34:31;;;;;;;4.10;2.70;;;14.60;99.90;;;;;;5109714;28;20617;-68
2022/10/24 03:36:59;;;;;;;4.73;2.80;;;14.60;99.90;;;;;;5109330;28;20688;-68
2022/10/24 03:39:25;;;;;;;3.10;2.87;;;14.60;99.90;;;;;;5108983;28;20212;-68
2022/10/24 03:41:52;;;;;;;4.63;3.00;;;14.40;99.90;;;;;;5109380;28;20202;-67
2022/10/24 03:44:19;;;;;;;2.90;2.60;;;14.40;99.90;;;;;;5109256;28;20249;-67
2022/10/24 03:46:46;;;;;;;5.73;3.30;;;14.30;99.90;;;;;;5122871;27;20205;-68
2022/10/24 03:49:12;;;;;;;7.43;3.27;;;14.30;99.90;;;;;;5129898;27;20201;-68
2022/10/24 03:51:39;;;;;;;3.37;2.97;;;14.30;99.90;;;;;;5129978;27;20212;-68
2022/10/24 03:54:08;;;;;;;4.37;2.80;;;14.40;99.90;;;;;;5129422;27;20209;-68
2022/10/24 03:56:35;;;;;;;3.10;2.80;;;14.40;99.90;;;;;;5129649;27;20298;-68
2022/10/24 03:59:01;;;;;;;2.70;2.50;;;14.40;99.90;;;;;;5129535;27;20209;-68
2022/10/24 04:01:28;;;;;;;3.30;3.10;;;14.40;99.90;;;;;;5129276;27;20544;-68
2022/10/24 04:03:55;;;;;;;3.40;2.90;;;14.40;99.90;;;;;;5128778;27;20225;-67
2022/10/24 04:06:22;;;;;;;3.40;2.80;;;14.30;99.90;;;;;;5127270;27;20208;-68
2022/10/24 04:08:48;;;;;;;3.87;2.80;;;14.30;99.90;;;;;;5129372;27;20213;-68
2022/10/24 04:11:16;;;;;;;5.27;3.27;;;14.40;99.90;;;;;;5129415;27;20222;-68
2022/10/24 04:13:43;;;;;;;3.57;2.80;;;14.40;99.90;;;;;;5128985;27;20202;-68
2022/10/24 04:16:10;;;;;;;3.17;2.87;;;14.40;99.90;;;;;;5129250;27;20198;-68
2022/10/24 04:18:37;;;;;;;3.77;2.90;;;14.40;99.90;;;;;;5129194;27;20205;-68
2022/10/24 04:21:04;;;;;;;3.03;2.70;;;14.40;99.90;;;;;;5128356;27;20648;-68
2022/10/24 04:23:34;;;;;;;3.47;2.70;;;14.40;99.90;;;;;;5129172;27;20209;-67
2022/10/24 04:26:01;;;;;;;3.10;2.60;;;14.50;99.90;;;;;;5122647;27;20259;-67
2022/10/24 04:28:29;;;;;;;2.80;2.53;;;14.50;99.90;;;;;;5108690;28;20197;-68
2022/10/24 04:30:56;;;;;;;3.93;2.67;;;14.50;99.90;;;;;;5121311;27;20206;-68
2022/10/24 04:33:23;;;;;;;3.87;2.67;;;14.40;99.90;;;;;;5128582;27;20197;-68
2022/10/24 04:35:51;;;;;;;3.70;3.00;;;14.40;99.90;;;;;;5128942;27;20213;-68
2022/10/24 04:38:18;;;;;;;4.30;2.80;;;14.40;99.90;;;;;;5129367;27;20201;-68
2022/10/24 04:40:46;;;;;;;3.37;2.80;;;14.40;99.90;;;;;;5128656;27;20201;-68
2022/10/24 04:43:13;;;;;;;5.67;2.60;;;14.40;99.90;;;;;;5128842;27;20285;-68
2022/10/24 04:45:41;;;;;;;2.87;2.73;;;14.50;99.90;;;;;;5128396;27;20225;-68
2022/10/24 04:48:08;;;;;;;2.57;2.40;;;14.50;99.90;;;;;;5129096;27;20213;-68
2022/10/24 04:50:35;;;;;;;3.53;2.97;;;14.50;99.90;;;;;;5128578;27;20567;-68
2022/10/24 04:53:02;;;;;;;3.57;2.60;;;14.50;99.90;;;;;;5128716;27;20577;-68
2022/10/24 04:55:28;;;;;;;2.63;2.33;;;14.50;99.90;;;;;;5128604;27;20209;-68
2022/10/24 04:57:55;;;;;;;2.73;2.27;;;14.50;99.90;;;;;;5128460;27;20683;-68
2022/10/24 05:00:22;;;;;;;4.97;2.60;;;14.50;99.90;;;;;;5128443;27;20570;-68
2022/10/24 05:02:50;;;;;;;2.70;2.50;;;14.50;99.90;;;;;;5122135;27;20229;-68
2022/10/24 05:05:17;;;;;;;3.10;2.90;;;14.50;99.90;;;;;;5108123;28;20267;-68
2022/10/24 05:07:44;;;;;;;3.87;2.70;;;14.50;99.90;;;;;;5107529;28;20578;-68
2022/10/24 05:10:13;;;;;;;3.23;2.80;;;14.50;99.90;;;;;;5107651;28;20230;-68
2022/10/24 05:12:40;;;;;;;4.53;2.80;;;14.50;99.90;;;;;;5108228;28;20609;-68
2022/10/24 05:15:08;;;;;;;5.53;2.80;;;14.50;99.90;;;;;;5121144;28;20197;-68
2022/10/24 05:17:35;;;;;;;2.87;2.57;;;14.50;99.90;;;;;;5128120;27;20198;-68
2022/10/24 05:20:06;;;;;;;3.40;3.10;;;14.50;99.90;;;;;;5128540;27;20209;-68
2022/10/24 05:22:33;;;;;;;2.77;2.60;;;14.50;99.90;;;;;;5128262;27;20873;-68
2022/10/24 05:25:00;;;;;;;3.37;2.73;;;14.50;99.90;;;;;;5128364;27;20233;-68
2022/10/24 05:27:27;;;;;;;3.13;2.33;;;14.50;99.90;;;;;;5109789;27;20240;-68
2022/10/24 05:29:54;;;;;;;3.77;3.00;;;14.50;99.90;;;;;;5117801;28;20190;-68
2022/10/24 05:32:23;;;;;;;3.07;2.77;;;14.50;99.90;;;;;;5124212;27;20209;-68
2022/10/24 05:34:50;;;;;;;3.07;2.80;;;14.50;99.90;;;;;;5111396;28;20205;-68
2022/10/24 05:37:18;;;;;;;4.93;2.97;;;14.50;99.90;;;;;;5111967;28;20225;-68
2022/10/24 05:39:45;;;;;;;3.73;2.60;;;14.50;99.90;;;;;;5111420;28;20198;-68
2022/10/24 05:42:12;;;;;;;7.03;2.70;;;14.50;99.90;;;;;;5111616;28;20210;-68
2022/10/24 05:44:39;;;;;;;4.67;3.47;;;14.50;99.90;;;;;;5111331;28;20320;-68
2022/10/24 05:47:06;;;;;;;3.60;2.67;;;14.50;99.90;;;;;;5125242;27;20202;-68
2022/10/24 05:49:33;;;;;;;4.47;2.90;;;14.50;99.90;;;;;;5131464;27;20676;-68
2022/10/24 05:52:00;;;;;;;4.40;3.13;;;14.40;99.90;;;;;;5132164;27;20201;-68
2022/10/24 05:54:28;;;;;;;3.27;2.63;;;14.40;99.90;;;;;;5131753;27;20202;-68
2022/10/24 05:56:55;;;;;;;3.80;2.77;;;14.40;99.90;;;;;;5131914;27;20205;-68
2022/10/24 05:59:21;;;;;;;3.83;2.80;;;14.40;99.90;;;;;;5131535;27;20205;-68
2022/10/24 06:01:48;;;;;;;7.77;2.77;;;14.40;99.90;;;;;;5131438;27;20228;-67
2022/10/24 06:04:15;;;;;;;4.70;2.90;;;14.40;99.90;;;;;;5131564;27;20198;-67
2022/10/24 06:06:44;;;;;;;2.70;2.50;;;14.50;99.90;;;;;;5131340;27;20202;-67
2022/10/24 06:09:11;;;;;;;3.37;2.60;;;14.50;99.90;;;;;;5131667;27;20205;-67
2022/10/24 06:11:41;;;;;;;3.20;3.00;;;14.50;99.90;;;;;;5131319;27;20615;-67
2022/10/24 06:14:08;;;;;;;4.77;3.03;;;14.50;99.90;;;;;;5131705;27;20209;-67
2022/10/24 06:16:35;;;;;;;3.90;2.93;;;14.50;99.90;;;;;;5131419;27;20207;-67
2022/10/24 06:19:02;;;;;;;3.57;3.10;;;14.50;99.90;;;;;;5131199;27;20212;-68
2022/10/24 06:21:29;;;;;;;3.60;3.30;;;14.50;99.90;;;;;;5113134;27;20827;-68
2022/10/24 06:23:55;;;;;;;4.33;3.00;;;14.40;99.90;;;;;;5131382;27;20205;-68
2022/10/24 06:26:22;;;;;;;4.00;2.60;;;14.40;99.90;;;;;;5121943;27;20234;-68
2022/10/24 06:28:50;;;;;;;3.00;2.80;;;14.50;99.90;;;;;;5110763;28;20206;-68
2022/10/24 06:31:19;;;;;;;3.50;2.80;;;14.50;99.90;;;;;;5110911;28;20213;-68
2022/10/24 06:33:45;;;;;;;3.97;2.77;;;14.50;99.90;;;;;;5115357;27;20197;-68
2022/10/24 06:36:13;;;;;;;3.87;2.80;;;14.50;99.90;;;;;;5131160;27;20205;-68
2022/10/24 06:38:40;;;;;;;5.13;2.93;;;14.50;99.90;;;;;;5130611;27;20205;-68
2022/10/24 06:41:07;;;;;;;4.30;3.20;;;14.50;99.90;;;;;;5130855;27;20193;-68
2022/10/24 06:43:35;;;;;;;4.53;2.77;;;14.50;99.90;;;;;;5130273;27;20413;-68
2022/10/24 06:46:06;;;;;;;4.00;3.30;;;14.60;99.90;;;;;;5130759;27;20225;-68
2022/10/24 06:48:33;;;;;;;5.30;3.47;;;14.60;99.90;;;;;;5130764;27;20208;-68
2022/10/24 06:51:00;;;;;;;5.03;3.10;;;14.60;99.90;;;;;;5130815;27;20205;-68
2022/10/24 06:53:27;;;;;;;5.00;2.93;;;14.60;99.90;;;;;;5130831;27;20208;-68
2022/10/24 06:55:53;;;;;;;4.13;3.20;;;14.60;99.90;;;;;;5125470;27;20209;-68
2022/10/24 06:58:20;;;;;;;4.97;2.90;;;14.60;99.90;;;;;;5130473;27;20206;-67
2022/10/24 07:00:47;;;;;;;6.13;3.17;;;14.60;99.90;;;;;;5130249;27;20702;-68
2022/10/24 07:03:16;;;;;;;7.37;3.43;;;14.60;99.90;;;;;;5129210;27;20237;-68
2022/10/24 07:05:43;;;;;;;4.80;3.30;;;14.60;99.90;;;;;;5129952;27;20236;-68
2022/10/24 07:08:11;;;;;;;4.83;3.37;;;14.60;99.90;;;;;;5130732;27;20202;-68
2022/10/24 07:10:37;;;;;;;6.57;3.30;;;14.60;99.90;;;;;;5129895;27;20224;-68
2022/10/24 07:13:04;;;;;;;10.60;2.97;;;14.70;99.90;;;;;;5130548;27;20208;-68
2022/10/24 07:15:31;;;;;;;7.03;3.27;;;14.70;99.90;;;;;;5129689;27;20198;-68
2022/10/24 07:17:58;;;;;;;5.53;3.40;;;14.70;99.90;;;;;;5129991;27;20686;-68
2022/10/24 07:20:26;;;;;;;5.30;3.10;;;14.70;99.90;;;;;;5121136;27;20209;-68
2022/10/24 07:22:52;;;;;;;4.47;3.30;;;14.70;99.90;;;;;;5109802;28;20217;-68
2022/10/24 07:25:19;;;;;;;4.43;2.90;;;14.70;99.90;;;;;;5109619;28;20245;-68
2022/10/24 07:27:46;;;;;;;8.47;3.37;;;14.70;99.90;;;;;;5112893;27;20240;-68
2022/10/24 07:30:17;;;;;;;4.70;3.00;;;14.70;99.90;;;;;;5130206;27;20205;-68
2022/10/24 07:32:44;;;;;;;6.07;3.00;;;14.70;99.90;;;;;;5129970;27;20652;-68
2022/10/24 07:35:12;;;;;;;5.27;3.43;;;14.70;99.90;;;;;;5129982;27;20205;-68
2022/10/24 07:37:40;;;;;;;4.50;3.10;;;14.80;99.90;;;;;;5129815;27;20242;-68
2022/10/24 07:40:08;;;;;;;6.90;2.90;;;14.80;99.90;;;;;;5129457;27;20205;-68
2022/10/24 07:42:35;;;;;;;4.03;3.30;;;14.80;99.90;;;;;;5129941;27;20217;-68
2022/10/24 07:45:03;;;;;;;6.33;3.30;;;14.80;99.90;;;;;;5129462;27;20738;-68
2022/10/24 07:47:30;;;;;;;5.83;3.43;;;14.90;99.90;;;;;;5129821;27;20227;-68
2022/10/24 07:49:56;;;;;;;4.00;3.23;;;14.90;99.90;;;;;;5129763;27;20216;-68
2022/10/24 07:52:23;;;;;;;5.20;3.43;;;14.90;99.90;;;;;;5127182;27;20243;-68
2022/10/24 07:54:52;;;;;;;3.87;3.00;;;14.90;99.90;;;;;;5129114;27;21013;-68
2022/10/24 07:57:19;;;;;;;7.47;3.77;;;15.00;99.90;;;;;;5111039;27;20214;-68
2022/10/24 07:59:46;;;;;;;3.93;3.60;;;15.00;99.90;;;;;;5108952;28;20213;-68
2022/10/24 08:02:14;;;;;;;7.47;3.43;;;15.10;99.90;;;;;;5129195;27;20233;-68
2022/10/24 08:04:42;;;;;;;6.03;3.50;;;15.10;99.90;;;;;;5129129;27;20202;-68
2022/10/24 08:07:11;;;;;;;8.20;3.70;;;15.10;99.90;;;;;;5128990;27;21054;-68
2022/10/24 08:09:38;;;;;;;6.40;3.43;;;15.20;99.90;;;;;;5129003;27;20274;-68
2022/10/24 08:12:07;;;;;;;6.00;3.10;;;15.20;99.90;;;;;;5129253;27;20213;-68
2022/10/24 08:14:34;;;;;;;6.57;3.63;;;15.20;99.90;;;;;;5129263;27;20215;-68
2022/10/24 08:17:00;;;;;;;7.90;3.53;;;15.20;99.90;;;;;;5128986;27;20202;-68
2022/10/24 08:19:27;;;;;;;4.03;3.10;;;15.30;99.90;;;;;;5128889;27;20209;-68
2022/10/24 08:21:54;;;;;;;9.30;3.10;;;15.40;99.90;;;;;;5128832;27;20202;-68
2022/10/24 08:24:21;;;;;;;4.90;3.13;;;15.50;99.90;;;;;;5128818;27;20197;-68
2022/10/24 08:26:47;;;;;;;3.77;3.00;;;15.50;99.90;;;;;;5129057;27;20244;-68
2022/10/24 08:29:21;;;;;;;5.50;3.40;;;15.60;99.90;;;;;;5128758;27;20571;-68
2022/10/24 08:31:50;;;;;;;7.90;3.40;;;15.70;99.90;;;;;;5128160;27;20612;-68
2022/10/24 08:34:17;;;;;;;5.43;3.20;;;15.70;99.90;;;;;;5108709;28;20198;-68
2022/10/24 08:36:44;;;;;;;4.50;3.10;;;15.70;99.90;;;;;;5108127;28;20218;-68
2022/10/24 08:39:10;;;;;;;4.33;3.03;;;15.80;99.90;;;;;;5108284;28;20206;-68
2022/10/24 08:41:42;;;;;;;4.67;2.80;;;15.80;99.90;;;;;;5108142;28;20212;-68
2022/10/24 08:44:21;;;;;;;6.47;3.20;;;15.90;99.90;;;;;;5108460;28;20190;-68
2022/10/24 08:46:52;;;;;;;7.47;2.77;;;15.90;99.90;;;;;;5109195;27;20214;-68
2022/10/24 08:49:40;;;;;;;5.40;2.93;;;15.90;99.90;;;;;;5126530;27;20215;-68
2022/10/24 08:52:17;;;;;;;5.90;2.97;;;15.90;99.90;;;;;;5128435;27;20555;-68
2022/10/24 08:54:45;;;;;;;6.80;3.30;;;16.00;99.90;;;;;;5127940;27;20193;-68
2022/10/24 08:57:20;;;;;;;6.10;3.10;;;16.00;99.90;;;;;;5128678;27;20659;-68
2022/10/24 08:59:48;;;;;;;7.90;3.03;;;16.10;99.90;;;;;;5128548;27;20567;-68
2022/10/24 09:02:21;;;;;;;10.67;3.27;;;16.10;99.90;;;;;;5128505;27;20233;-68
2022/10/24 09:04:55;;;;;;;7.73;3.00;;;16.10;99.90;;;;;;5128554;27;20205;-68
2022/10/24 09:07:23;;;;;;;4.67;3.23;;;16.10;99.90;;;;;;5128493;27;20324;-68
2022/10/24 09:09:51;;;;;;;4.90;3.07;;;16.10;99.90;;;;;;5128150;27;20281;-68
2022/10/24 09:12:20;;;;;;;7.23;3.13;;;16.10;99.90;;;;;;5128707;27;20201;-68
2022/10/24 09:14:54;;;;;;;7.97;3.10;;;16.10;99.90;;;;;;5128231;27;20201;-68
2022/10/24 09:17:23;;;;;;;8.00;2.93;;;16.20;99.90;;;;;;5128615;27;20199;-68
2022/10/24 09:19:53;;;;;;;4.03;2.83;;;16.20;99.90;;;;;;5128493;27;20201;-68
2022/10/24 09:22:21;;;;;;;8.27;3.07;;;16.20;99.90;;;;;;5128198;27;20206;-68
2022/10/24 09:24:53;;;;;;;4.57;3.03;;;16.30;99.90;;;;;;5128199;27;20208;-68
2022/10/24 09:27:23;;;;;;;4.57;3.07;;;16.30;99.90;;;;;;5110951;27;20293;-68
2022/10/24 09:29:52;;;;;;;6.77;3.27;;;16.30;99.90;;;;;;5107532;28;20230;-68
2022/10/24 09:32:21;;;;;;;7.37;2.83;;;16.30;99.90;;;;;;5118147;28;20205;-68
2022/10/24 09:34:49;;;;;;;7.20;2.97;;;16.30;99.90;;;;;;5127815;27;20197;-68
2022/10/24 09:37:30;;;;;;;6.33;3.37;;;16.30;99.90;;;;;;5128300;27;20206;-68
2022/10/24 09:40:08;;;;;;;9.10;3.37;;;16.30;99.90;;;;;;5128254;27;20205;-68
2022/10/24 09:42:36;;;;;;;3.87;2.43;;;16.30;99.90;;;;;;5128087;27;20559;-68
2022/10/24 09:45:19;;;;;;;9.60;3.00;;;16.40;99.90;;;;;;5113555;27;20255;-68
2022/10/24 09:47:45;;;;;;;6.07;3.33;;;16.40;99.90;;;;;;5123030;28;20240;-68
2022/10/24 09:50:20;;;;;;;6.87;2.87;;;16.40;99.90;;;;;;5127945;27;20212;-68
2022/10/24 09:52:49;;;;;;;6.70;3.30;;;16.40;99.90;;;;;;5127376;27;20197;-68
2022/10/24 09:55:19;;;;;;;4.47;3.30;;;16.40;99.90;;;;;;5122536;27;20210;-68
2022/10/24 09:57:46;;;;;;;9.30;2.60;;;16.50;99.90;;;;;;5107469;28;20206;-68
2022/10/24 10:00:24;;;;;;;7.47;3.00;;;16.50;99.90;;;;;;5107104;28;20210;-68
2022/10/24 10:03:02;;;;;;;5.90;2.97;;;16.40;99.90;;;;;;5107154;28;20241;-68
2022/10/24 10:05:41;;;;;;;6.83;3.20;;;16.50;99.90;;;;;;5107024;28;20205;-68
2022/10/24 10:08:11;;;;;;;5.20;2.90;;;16.40;99.90;;;;;;5115207;28;20201;-68
2022/10/24 10:10:38;;;;;;;8.90;2.87;;;16.40;99.90;;;;;;5127432;27;20228;-68
2022/10/24 10:13:17;;;;;;;8.63;3.00;;;16.50;99.90;;;;;;5127484;27;20214;-68
2022/10/24 10:15:47;;;;;;;5.37;2.90;;;16.50;99.90;;;;;;5127762;27;20222;-68
2022/10/24 10:18:27;;;;;;;6.03;2.63;;;16.50;99.90;;;;;;5128158;27;20214;-68
2022/10/24 10:21:10;;;;;;;4.87;2.57;;;16.60;99.90;;;;;;5117999;27;20208;-68
2022/10/24 10:23:38;;;;;;;5.90;2.80;;;16.60;99.90;;;;;;5111049;27;20247;-68
2022/10/24 10:26:15;;;;;;;6.63;2.60;;;16.60;99.90;;;;;;5128589;27;20916;-68
2022/10/24 10:28:47;;;;;;;10.13;3.50;;;16.70;99.90;;;;;;5131302;27;20579;-68
2022/10/24 10:31:17;;;;;;;5.40;2.90;;;16.70;99.90;;;;;;5130844;27;20202;-68
2022/10/24 10:33:55;;;;;;;8.67;2.77;;;16.70;99.90;;;;;;5113927;27;20569;-68
2022/10/24 10:36:27;;;;;;;8.07;2.67;;;16.80;99.90;;;;;;5111163;27;20197;-67
2022/10/24 10:39:12;;;;;;;5.83;2.80;;;16.80;99.90;;;;;;5130874;27;20663;-68
2022/10/24 10:41:44;;;;;;;7.97;2.87;;;16.80;99.90;;;;;;5111387;27;20210;-67
2022/10/24 10:44:43;;;;;;;6.53;2.73;;;16.80;99.90;;;;;;5110860;28;20199;-68
2022/10/24 10:47:19;;;;;;;4.80;2.80;;;16.80;99.90;;;;;;5110276;28;20237;-68
2022/10/24 10:49:50;;;;;;;4.17;2.37;;;16.80;99.90;;;;;;5110399;28;20190;-68
2022/10/24 10:52:24;;;;;;;7.03;2.33;;;16.80;99.90;;;;;;5110710;28;20206;-68
2022/10/24 10:55:06;;;;;;;4.63;2.77;;;16.80;99.90;;;;;;5110071;28;20209;-68
2022/10/24 10:57:41;;;;;;;9.87;2.40;;;16.80;99.90;;;;;;5109857;27;20660;-68
2022/10/24 11:00:12;;;;;;;6.27;2.83;;;16.80;99.90;;;;;;5110287;28;20194;-68
2022/10/24 11:03:01;;;;;;;8.97;2.97;;;16.80;99.90;;;;;;5109854;28;20238;-68
2022/10/24 11:05:40;;;;;;;11.07;2.57;;;16.80;99.90;;;;;;5119676;27;20193;-68
2022/10/24 11:08:20;;;;;;;5.00;2.50;;;16.80;99.90;;;;;;5130699;27;20225;-68
2022/10/24 11:10:51;;;;;;;5.63;2.90;;;16.80;99.90;;;;;;5129690;27;20218;-67
2022/10/24 11:13:22;;;;;;;5.30;2.30;;;16.90;99.90;;;;;;5130762;27;20201;-68
2022/10/24 11:15:54;;;;;;;11.57;2.83;;;16.90;99.90;;;;;;5130690;27;20194;-68
2022/10/24 11:18:25;;;;;;;4.07;2.50;;;16.90;99.90;;;;;;5130704;27;20711;-68
2022/10/24 11:20:56;;;;;;;5.33;2.47;;;16.90;99.90;;;;;;5126968;27;20189;-67
2022/10/24 11:23:30;;;;;;;5.30;2.80;;;16.90;99.90;;;;;;5130534;27;20609;-68
2022/10/24 11:26:02;;;;;;;5.77;2.77;;;16.90;99.90;;;;;;5129967;27;20217;-68
2022/10/24 11:28:34;;;;;;;7.10;2.20;;;16.90;99.90;;;;;;5130101;27;20190;-68
2022/10/24 11:31:05;;;;;;;7.27;2.77;;;16.90;99.90;;;;;;5130067;27;20196;-67
2022/10/24 11:33:39;;;;;;;5.87;2.17;;;17.00;99.90;;;;;;5114878;27;20190;-68
2022/10/24 11:36:12;;;;;;;8.17;2.40;;;17.00;99.90;;;;;;5109400;28;20201;-68
2022/10/24 11:38:46;;;;;;;4.43;2.10;;;17.00;99.90;;;;;;5127489;27;20194;-68
2022/10/24 11:41:32;;;;;;;7.53;2.50;;;17.10;99.90;;;;;;5129905;27;20190;-68
2022/10/24 11:44:06;;;;;;;5.47;2.43;;;17.10;99.90;;;;;;5130036;27;20201;-68
2022/10/24 11:46:36;;;;;;;6.93;2.50;;;17.10;99.90;;;;;;5129633;27;20221;-68
2022/10/24 11:49:12;;;;;;;5.17;2.20;;;17.10;99.90;;;;;;5113626;27;20210;-68
2022/10/24 11:51:43;;;;;;;7.07;2.33;;;17.10;99.90;;;;;;5108741;28;20190;-68
2022/10/24 11:54:15;;;;;;;6.07;2.50;;;17.00;99.90;;;;;;5128123;27;20197;-68
2022/10/24 11:56:47;;;;;;;6.37;2.90;;;17.10;99.90;;;;;;5117412;27;20202;-68
2022/10/24 11:59:20;;;;;;;6.57;2.27;;;17.10;99.90;;;;;;5124775;27;20204;-68
2022/10/24 12:02:19;;;;;;;3.83;2.50;;;17.10;99.90;;;;;;5129299;27;20268;-68
2022/10/24 12:05:09;;;;;;;3.47;2.10;;;17.10;99.90;;;;;;5127286;27;20209;-68
2022/10/24 12:07:57;;;;;;;6.47;2.73;;;17.20;99.90;;;;;;5129163;27;20749;-68
2022/10/24 12:10:34;;;;;;;3.20;2.00;;;17.20;99.90;;;;;;5129202;27;20229;-68
2022/10/24 12:13:15;;;;;;;6.10;2.50;;;17.30;99.90;;;;;;5129488;27;20216;-68
2022/10/24 12:15:50;;;;;;;8.50;2.50;;;17.20;99.90;;;;;;5128977;27;20194;-68
2022/10/24 12:18:30;;;;;;;4.00;2.17;;;17.30;99.90;;;;;;5129184;27;20193;-68
2022/10/24 12:21:02;;;;;;;4.93;2.40;;;17.30;99.90;;;;;;5129292;27;20625;-68
2022/10/24 12:23:30;;;;;;;5.80;2.30;;;17.30;99.90;;;;;;5129291;27;20185;-68
2022/10/24 12:26:05;;;;;;;4.80;2.40;;;17.30;99.90;;;;;;5122794;27;20255;-68
2022/10/24 12:28:32;;;;;;;7.83;2.60;;;17.30;99.90;;;;;;5108639;28;20267;-68
2022/10/24 12:31:19;;;;;;;2.97;2.13;;;17.30;99.90;;;;;;5108382;28;20209;-68
2022/10/24 12:34:07;;;;;;;7.43;2.40;;;17.30;99.90;;;;;;5123528;27;20966;-68
2022/10/24 12:37:03;;;;;;;4.73;2.10;;;17.30;99.90;;;;;;5128857;27;20209;-68
2022/10/24 12:39:31;;;;;;;7.23;2.80;;;17.30;99.90;;;;;;5128755;27;20201;-68
2022/10/24 12:41:58;;;;;;;6.47;2.50;;;17.30;99.90;;;;;;5128166;27;20205;-68
2022/10/24 12:44:50;;;;;;;3.97;2.00;;;17.30;99.90;;;;;;5128632;27;20209;-68
2022/10/24 12:47:35;;;;;;;25.03;3.63;;;17.40;99.90;;;;;;5128727;27;20217;-68
2022/10/24 12:50:35;;;;;;;6.20;2.70;;;17.60;99.90;;;;;;5128862;27;20212;-68
2022/10/24 12:53:16;;;;;;;6.23;2.73;;;17.60;99.90;;;;;;5121778;27;20200;-68
2022/10/24 12:56:12;;;;;;;60.47;8.60;;;17.80;99.90;;;;;;5124645;27;20230;-68
2022/10/24 12:58:41;;;;;;;19.83;3.40;;;18.20;99.90;;;;;;5108069;28;20194;-68
2022/10/24 13:01:12;;;;;;;7.70;2.27;;;18.40;99.90;;;;;;5108006;28;20255;-68
2022/10/24 13:04:22;;;;;;;14.17;3.80;;;18.60;99.90;;;;;;5108112;28;20198;-68